logo
App data

Magma Tsunami

Magma Tsunami is a frenzied arcade platformer game. Beat your records in 1P or Co-op mode, and don't get caught by the Magma Tsunami!!! Could you stay alive for more than one minute??
Store | Hub | SteamDB | Site
Developer: StrangeLight Games Publisher: StrangeLight Games
Genre: Indie
Languages: English
Tags: Indie (23), Platformer (6)
Category: Single-player, Multi-player, Co-op, Shared/Split Screen, Steam Trading Cards, Partial Controller Support
Release date: Jun 1, 2016
Price: $0.99
Old userscore: 64% Owners: 100,000 .. 200,000
Followers: 181
Peak concurrent players yesterday: 4
Playtime total: 07:01 (average) 07:20 (median)

Steam Spy is still in beta, so expect major bugs.

Owners data:

Access restricted.

This feature is only available to users with special access rights. Sorry.

If you want to proceed, you need to register or log in first and then back Steam Spy on Patreon. Look for Indie or Pro pledge.

Don't forget to use the same email as on Steam Spy!

Audience in 2 weeks:

Access restricted.

This feature is only available to users with special access rights. Sorry.

If you want to proceed, you need to register or log in first and then back Steam Spy on Patreon. Look for Indie or Pro pledge.

Don't forget to use the same email as on Steam Spy!

Peak daily concurrent players:

CCU data courtesy of SteamDB. Used with permission.

Hourly concurrent players:

YouTube:

The views data is based on top 50 videos uploaded last week. Actual number of views might be more than the number shown.

The displayed number of videos uploaded yesterday is limited to 50, so if there were more videos uploaded, the number will still show 50.

If the game has commonly used word as its name (like "FEAR" or "Volume") its number of Youtube views might be wrong.

Games similar to this one:

# Game Release date
Price
Score rank
(Userscore / Metascore)
Owners
Players
Playtime (Median)
1 Night Blights Apr 15, 2016 $4.99100% (100%)0 .. 20,0000%00:00 (00:00)
2 Carrie's Order Up! Sep 12, 2016 $2.9999% (98%)0 .. 20,0000%00:00 (00:00)
3 Luxor Evolved Mar 1, 2012 $9.9997% (97%)50,000 .. 100,0000%00:00 (00:00)
4 Hustle Cat Mar 16, 2016 $19.9995% (96%)20,000 .. 50,0000%00:00 (00:00)
5 A Good Snowman Is Hard To Build Feb 25, 2015 $9.9992% (95%)20,000 .. 50,0000%00:00 (00:00)
6 Beat Da Beat Mar 10, 2016 $1.9992% (95%)0 .. 20,0000%00:00 (00:00)
7 Chip's Challenge 2 May 28, 2015 $4.9990% (94%)20,000 .. 50,0000%00:00 (00:00)
8 Girls Like Robots Feb 14, 2014 $6.99N/A (N/A)100,000 .. 200,0000%00:00 (00:00)
9 Tennis in the Face Nov 18, 2015 $4.99N/A (N/A)0 .. 20,0000%00:00 (00:00)
10 Swapperoo Dec 18, 2015 $1.24N/A (N/A)0 .. 20,0000%00:00 (00:00)
11 [the Sequence] Mar 30, 2016 $1.9987% (93%)0 .. 20,0000%00:00 (00:00)
12 12 Labours of Hercules Mar 23, 2015 $1.9487% (93%)100,000 .. 200,0000%00:00 (00:00)
13 SquareCells Dec 7, 2015 $2.9983% (92%)20,000 .. 50,0002.27%01:10 (00:23)
14 Grapple Mar 9, 2015 $6.9983% (92%)20,000 .. 50,0000%00:00 (00:00)
15 Griptape Backbone May 5, 2017 Free79% (91%)0 .. 20,0003.13%00:07 (00:02)
16 Earthtongue Apr 27, 2015 $4.9979% (91%)0 .. 20,0002.86%01:00 (00:20)
17 The Jackbox Party Pack Nov 26, 2014 $24.9979% (91%)200,000 .. 500,0004.39%01:10 (01:38)
18 Tribloos 2 Jan 12, 2013 $4.9979% (91%)100,000 .. 200,0000.47%03:36 (02:24)
19 Frog Climbers Oct 6, 2016 $6.9976% (90%)20,000 .. 50,0000%00:00 (00:00)
20 Vampires: Guide Them to Safety! Oct 22, 2014 $4.99N/A (N/A)0 .. 20,0000%00:00 (00:00)
21 Koala Kids Jun 22, 2015 $1.9976% (90%)20,000 .. 50,0000%00:00 (00:00)
22 Think To Die 3 Mar 27, 2017 $4.99N/A (N/A)0 .. 20,0000%00:00 (00:00)
23 The Reject Demon: Toko Chapter 0 — Prelude May 9, 2015 $4.9973% (89%)0 .. 20,0001.59%02:38 (00:52)
24 12 Labours of Hercules IV: Mother Nature (Platinum Edition) Dec 25, 2015 $2.9973% (89%)20,000 .. 50,0000.78%00:09 (00:03)
25 12 Labours of Hercules V: Kids of Hellas (Platinum Edition) Jun 17, 2016 $2.9973% (89%)20,000 .. 50,0000%00:00 (00:00)
26 On Rusty Trails Jun 13, 2016 $12.9973% (89%/77%)50,000 .. 100,0000%00:00 (00:00)
27 Without Within 2 Nov 9, 2015 $2.9973% (89%)0 .. 20,0000%00:00 (00:00)
28 This Starry Midnight We Make Jun 1, 2015 $9.99N/A (N/A)0 .. 20,0000%00:00 (00:00)
29 Clock Simulator Jul 20, 2016 $0.9973% (89%)20,000 .. 50,0000%00:00 (00:00)
30 Forgotten, Not Lost - A Kinetic Novel Apr 1, 2016 $1.9973% (89%)50,000 .. 100,00011.04%04:12 (04:36)
31 Bob Was Hungry Aug 19, 2015 $9.9970% (88%)20,000 .. 50,0000%00:00 (00:00)
32 Thrillville: Off the Rails Oct 9, 2007 $9.9970% (88%/70%)20,000 .. 50,0000%00:00 (00:00)
33 Recursion Deluxe Feb 12, 2016 $4.99N/A (N/A)0 .. 20,0000%00:00 (00:00)
34 In Between Aug 21, 2015 $11.9970% (88%/68%)50,000 .. 100,0000%00:00 (00:00)
35 Asphyxia Aug 4, 2015 $5.9967% (87%)20,000 .. 50,0000%00:00 (00:00)
36 Cursed Sight Aug 3, 2015 $2.9967% (87%)0 .. 20,0000%00:00 (00:00)
37 Loot Hound Nov 17, 2015 $4.99N/A (N/A)0 .. 20,0000%00:00 (00:00)
38 Darkarta: A Broken Heart's Quest Collector's Edition Mar 8, 2017 $5.9964% (86%)20,000 .. 50,0000%00:00 (00:00)
39 Oozi: Earth Adventure Dec 5, 2013 $0.7464% (86%/66%)50,000 .. 100,0000%00:00 (00:00)
40 Sophie's Curse Mar 16, 2016 $4.9964% (86%)50,000 .. 100,0001.24%03:11 (02:07)
41 Army of Pixels Oct 29, 2015 $4.99N/A (N/A)0 .. 20,0000%00:00 (00:00)
42 Anode Oct 5, 2015 $3.99N/A (N/A)0 .. 20,0002.38%01:37 (00:32)
43 Psycho Starship Rampage Sep 28, 2015 $9.9962% (85%)0 .. 20,0000%00:00 (00:00)
44 Sentinel 4: Dark Star Aug 13, 2015 $6.99N/A (N/A)0 .. 20,0000%00:00 (00:00)
45 Alpha Runner Sep 2, 2015 $0.9962% (85%)50,000 .. 100,0000%00:00 (00:00)
46 BAD END Nov 25, 2015 $1.9962% (85%)0 .. 20,0000%00:00 (00:00)
47 Dead Man's Draw Feb 6, 2014 $6.9962% (85%)20,000 .. 50,0000%00:00 (00:00)
48 RePete Mar 9, 2016 $1.99N/A (N/A)0 .. 20,0000%00:00 (00:00)
49 Governor of Poker 2 - Premium Edition Oct 11, 2010 $14.9959% (84%)20,000 .. 50,0000%00:00 (00:00)
50 Cyto Jul 10, 2014 $3.99N/A (N/A)20,000 .. 50,0000%00:00 (00:00)
51 Steam and Metal Feb 9, 2015 $4.99N/A (N/A)0 .. 20,0001.56%01:45 (00:35)
52 Gridworld Dec 24, 2015 $0.9956% (83%)0 .. 20,0000%00:00 (00:00)
53 Collisions Jul 28, 2015 $3.9956% (83%)20,000 .. 50,0000%00:00 (00:00)
54 Job the Leprechaun Jul 31, 2015 $0.99N/A (N/A)20,000 .. 50,0000%00:00 (00:00)
55 Cute Things Dying Violently Sep 2, 2015 $2.99N/A (N/A)0 .. 20,0000%00:00 (00:00)
56 Stay Alight Mar 2, 2015 $3.9952% (81%)20,000 .. 50,0000%00:00 (00:00)
57 Space Drifters 2D Mar 28, 2016 $0.99N/A (N/A)20,000 .. 50,0000%00:00 (00:00)
58 Egg Returns Home May 5, 2015 $1.9949% (80%)20,000 .. 50,0000%00:00 (00:00)
59 Archimedes Oct 6, 2016 $2.9949% (80%)100,000 .. 200,0000%00:00 (00:00)
60 Optika Aug 26, 2016 $4.9947% (79%)20,000 .. 50,0000%00:00 (00:00)
61 Star Sky - ブルームーン Oct 23, 2015 $3.9947% (79%)0 .. 20,0000%00:00 (00:00)
62 Air Missions: HIND Jun 14, 2017 $16.9947% (79%)0 .. 20,0000%00:00 (00:00)
63 The Last NightMary - A Lenda do Cabeça de Cuia Nov 2, 2015 $0.5147% (79%)50,000 .. 100,0000%00:00 (00:00)
64 GamersGoMakers Aug 8, 2014 $9.9947% (79%)0 .. 20,0000%00:00 (00:00)
65 Dungeon Painter Studio Feb 26, 2017 $14.9947% (79%)20,000 .. 50,00014.29%00:21 (00:17)
66 Farm for your Life Jun 5, 2013 $9.9945% (78%)50,000 .. 100,0000%00:00 (00:00)
67 Neon Prism Nov 18, 2016 $4.9945% (78%)50,000 .. 100,0000.28%00:01 (00:00)
68 Fate Tectonics Sep 9, 2015 $9.9945% (78%)0 .. 20,0002.06%02:24 (01:04)
69 Terraform May 8, 2015 $2.99N/A (N/A)0 .. 20,0000%00:00 (00:00)
70 Beeftacular Aug 26, 2016 $2.9945% (78%)0 .. 20,0000%00:00 (00:00)
71 Particulars Nov 19, 2014 $5.99N/A (N/A/74%)20,000 .. 50,0000%00:00 (00:00)
72 hackmud Sep 22, 2016 $19.9945% (78%)20,000 .. 50,0003.23%02:46 (00:55)
73 SinaRun Oct 26, 2015 $2.9943% (77%)0 .. 20,0000%00:00 (00:00)
74 The Survey Oct 27, 2016 $4.9943% (77%)0 .. 20,0000%00:00 (00:00)
75 Paranormal State: Poison Spring Nov 26, 2013 $9.9943% (77%)20,000 .. 50,0000.84%01:02 (00:20)
76 Pixel Puzzles 2: Birds Feb 20, 2015 $9.9941% (76%)200,000 .. 500,0000.88%03:59 (05:18)
77 Rescue Team 5 Nov 18, 2015 $3.99N/A (N/A)20,000 .. 50,0000%00:00 (00:00)
78 The Deletion Jul 30, 2015 $1.9939% (75%)20,000 .. 50,0000%00:00 (00:00)
79 Where are my Internets? Dec 16, 2016 $2.9939% (75%)0 .. 20,0003.57%00:01 (00:00)
80 Western FPS Mar 13, 2017 $0.9939% (75%)100,000 .. 200,0000%00:00 (00:00)
81 Kombine Oct 14, 2016 $0.9939% (75%)0 .. 20,0000%00:00 (00:00)
82 MOAI 2: Path to Another World Jul 16, 2015 $7.99N/A (N/A)0 .. 20,0000%00:00 (00:00)
83 GO AWAY, THERE'S KUMIS OVER THERE! Oct 28, 2016 $0.9935% (73%)50,000 .. 100,0000%00:00 (00:00)
84 Turbo Pug 3D Sep 20, 2016 $0.9935% (73%)200,000 .. 500,0002.59%03:52 (04:12)
85 Lift It Jan 20, 2017 $4.99N/A (N/A)20,000 .. 50,0000.43%07:34 (02:31)
86 Idle Evolution Apr 3, 2017 $4.9934% (72%)0 .. 20,00010%00:09 (00:03)
87 ConflictCraft Dec 8, 2016 $2.99N/A (N/A)20,000 .. 50,0002.38%03:13 (03:12)
88 Axel & Pixel Oct 6, 2010 $4.99N/A (N/A)20,000 .. 50,0000%00:00 (00:00)
89 Caravanserail Mar 10, 2016 $2.99N/A (N/A)0 .. 20,0000%00:00 (00:00)
90 Laserlife Sep 22, 2015 $14.99N/A (N/A)0 .. 20,0000%00:00 (00:00)
91 Zipple World Jan 19, 2016 $4.99N/A (N/A)0 .. 20,0000%00:00 (00:00)
92 Wanda - A Beautiful Apocalypse Jun 3, 2016 $1.99N/A (N/A)100,000 .. 200,0000%00:00 (00:00)
93 Sinister City Oct 18, 2014 $0.9927% (68%)100,000 .. 200,0000%00:00 (00:00)
94 Love in the Glen Jun 8, 2016 $5.99N/A (N/A)20,000 .. 50,0000%00:00 (00:00)
95 Totally Unbalanced Jul 29, 2016 $2.9927% (68%)0 .. 20,0000%00:00 (00:00)
96 Pester Aug 21, 2015 $0.99N/A (N/A)100,000 .. 200,0000%00:00 (00:00)
97 Mind Games Mar 4, 2016 $2.9926% (67%)0 .. 20,0000%00:00 (00:00)
98 1931: Scheherazade at the Library of Pergamum Mar 26, 2015 $14.9926% (67%)0 .. 20,0001.67%00:08 (00:02)
99 Alter World May 29, 2015 $1.9924% (66%)100,000 .. 200,0000.65%02:40 (02:40)
100 Fergus The Fly Feb 1, 2017 $0.9924% (66%)200,000 .. 500,0000.57%04:47 (03:51)
101 Broken Dreams Feb 19, 2016 $1.9924% (66%)200,000 .. 500,0000.36%04:19 (04:09)
102 Marble Duel Nov 12, 2015 $4.9924% (66%)50,000 .. 100,0000.83%05:33 (01:51)
103 One Last Chance Apr 7, 2016 $3.99N/A (N/A)20,000 .. 50,0001.12%00:02 (00:00)
104 XCavalypse Jun 6, 2016 $5.99N/A (N/A)0 .. 20,0006.25%01:44 (00:34)
105 Highborn Feb 19, 2013 $1.99N/A (N/A)0 .. 20,0000%00:00 (00:00)
106 Herding Dog Jan 15, 2016 $2.99N/A (N/A)0 .. 20,0000%00:00 (00:00)
107 Power of Love Jul 21, 2015 $0.4920% (62%)20,000 .. 50,0001.2%04:01 (02:40)
108 Winexy Jan 13, 2017 $0.4920% (62%)20,000 .. 50,0000%00:00 (00:00)
109 Goodnight Butcher Dec 18, 2015 $1.99N/A (N/A)20,000 .. 50,0000%00:00 (00:00)
110 Won't You Be My Laser? Sep 2, 2016 $0.99N/A (N/A)0 .. 20,0000%00:00 (00:00)
111 Football Blitz Jan 4, 2017 $3.99N/A (N/A)0 .. 20,0000%00:00 (00:00)
112 FBI MANIA Jan 31, 2017 $0.4918% (60%)100,000 .. 200,0001.23%05:10 (05:22)
113 Racecraft Mar 4, 2016 Free17% (59%)0 .. 20,0001.75%00:04 (00:01)
114 Star Chronicles: Delta Quadrant Jul 7, 2015 $0.4917% (59%)200,000 .. 500,0000.17%02:14 (01:29)
115 Dance Magic Feb 15, 2016 $9.99N/A (N/A)0 .. 20,0000%00:00 (00:00)
116 Wildlife Park 2 - Dino World Mar 30, 2012 $3.9915% (58%)20,000 .. 50,0007.14%00:21 (00:07)
117 Way of Gold and Steel Aug 17, 2015 $8.9915% (57%)0 .. 20,0000%00:00 (00:00)
118 Bunny & Piggy Nov 30, 2016 $0.9914% (56%)50,000 .. 100,0000%00:00 (00:00)
119 Bloop Reloaded Feb 6, 2015 $9.99N/A (N/A)100,000 .. 200,0000%00:00 (00:00)
120 Drizzlepath Mar 12, 2015 $2.9912% (54%)0 .. 20,0000%00:00 (00:00)
121 Backgammon Blitz Nov 12, 2015 $3.9912% (54%)0 .. 20,0000%00:00 (00:00)
122 King's Guard TD Jun 8, 2016 $2.9912% (54%)100,000 .. 200,0000%00:00 (00:00)
123 Sky to Fly: Soulless Leviathan Jul 22, 2016 $3.99N/A (N/A)0 .. 20,0000%00:00 (00:00)
124 Reptilian Rebellion Aug 7, 2016 $0.99N/A (N/A)20,000 .. 50,0000%00:00 (00:00)
125 Quantum Rush Champions Dec 4, 2014 $9.9912% (53%)20,000 .. 50,0000.89%01:30 (00:30)
126 Color Syndrome Aug 1, 2016 $0.9911% (52%)20,000 .. 50,0000%00:00 (00:00)
127 Rage Runner May 16, 2014 $4.99N/A (N/A)0 .. 20,0000%00:00 (00:00)
128 Astro Emporia Feb 2, 2015 $0.99N/A (N/A)20,000 .. 50,0001.33%00:01 (00:00)
129 Autumn May 14, 2016 $2.998% (46%)50,000 .. 100,0001.13%02:02 (01:21)
130 Ninja Stealth 2 Jan 30, 2017 $0.998% (46%)20,000 .. 50,0000%00:00 (00:00)
131 Melting Hearts: Our Love Will Grow 2 Apr 29, 2016 N/AN/A (N/A)20,000 .. 50,0000%00:00 (00:00)
132 iREC Jan 16, 2017 Free6% (43%)20,000 .. 50,0000%00:00 (00:00)
133 European Ship Simulator Nov 4, 2016 $4.995% (38%)20,000 .. 50,0000%00:00 (00:00)
134 Streets of Chaos Jan 23, 2015 $0.99N/A (N/A)100,000 .. 200,0000%00:00 (00:00)
135 Hide and Secret Treasure of the Ages Jun 17, 2016 $0.98N/A (N/A)0 .. 20,0000%00:00 (00:00)
136 Space Hotel Jan 4, 2017 $1.99N/A (N/A)0 .. 20,0000%00:00 (00:00)
137 Burst Mar 14, 2016 $1.99N/A (N/A)100,000 .. 200,0000%00:00 (00:00)
138 Labyrinth Simulator Sep 21, 2015 $4.99N/A (N/A)0 .. 20,0002.22%01:07 (00:22)
139 Industry Transporters Aug 31, 2015 $9.99N/A (N/A)0 .. 20,0000%00:00 (00:00)
140 Robot vs Birds Zombies Jul 23, 2015 $0.993% (31%)0 .. 20,0000%00:00 (00:00)
141 Hyposphere May 5, 2016 $2.99N/A (N/A)200,000 .. 500,0000.31%04:19 (02:52)
142 Cyber Team Manager Jan 18, 2016 $4.99N/A (N/A)0 .. 20,0000%00:00 (00:00)
143 One way to exit Mar 12, 2016 $1.99N/A (N/A)200,000 .. 500,0000%00:00 (00:00)

Tags over time:

Access restricted.

This feature is only available to users with special access rights. Sorry.

If you want to proceed, you need to register or log in first and then back Steam Spy on Patreon. Look for Indie or Pro pledge.

Don't forget to use the same email as on Steam Spy!

Owners of this game also own:

Access restricted.

This feature is only available to users with special access rights. Sorry.

If you want to proceed, you need to register or log in first and then back Steam Spy on Patreon. Look for Indie or Pro pledge.

Don't forget to use the same email as on Steam Spy!

Playtime distribution:

Access restricted.

This feature is only available to users with special access rights. Sorry.

If you want to proceed, you need to register or log in first and then back Steam Spy on Patreon. Look for Indie or Pro pledge.

Don't forget to use the same email as on Steam Spy!

Playtime (2 weeks):

Access restricted.

This feature is only available to users with special access rights. Sorry.

If you want to proceed, you need to register or log in first and then back Steam Spy on Patreon. Look for Indie or Pro pledge.

Don't forget to use the same email as on Steam Spy!

User reviews:

Login required.

Please register or log in to see this information.